Monday, February 18, 2019, 5:33 AM EST
Back to Local

KCEF, Chicopee Falls / Westover Air Force Base

Location: Chicopee, MA, United States Lat: 42.2
Local Time: 5:33 AM EST (10:33 GMT) Lon: -72.533
Time Zone: US/Eastern Elev: 246 ft

Show me the last for .
Show Decoded

2019-02-18 05:11 METAR KCEF 181011Z AUTO 04003KT 2 3/4SM -SN BR OVC032 M03/M04 A2985 RMK AO2 VIS
                 2 1/4V2 3/4 SLP117 =
2019-02-18 04:56 METAR KCEF 180956Z AUTO 05003KT 2SM -SN BR OVC027 M03/M04 A2985 RMK AO2 SLP117
                 P0002 T10281038 =
2019-02-18 04:41 METAR KCEF 180941Z AUTO 04004KT 2 1/2SM -SN BR OVC027 M03/M04 A2986 RMK AO2 CIG
                 023 RWY05 SLP120 =
2019-02-18 04:26 METAR KCEF 180926Z AUTO 00000KT 2 1/4SM -SN BR OVC034 M03/M04 A2987 RMK AO2 VIS
                 2 1/4V2 3/4 SLP124 =
2019-02-18 03:56 METAR KCEF 180856Z AUTO 00000KT 4SM -SN BR OVC034 M03/M04 A2989 RMK AO2 SLP130
                 P0004 60010 T10271037 57021 =
2019-02-18 03:41 METAR KCEF 180841Z AUTO 00000KT 2SM -SN BR OVC022 M03/M04 A2988 RMK AO2 CIG 015
                 RWY05 PRESFR SLP127 =
2019-02-18 03:26 METAR KCEF 180826Z AUTO 00000KT 1 5/8SM -SN BR FEW003 M03/M04 A2990 RMK AO2
                 SLP134 =
2019-02-18 03:11 METAR KCEF 180811Z AUTO 00000KT 1 3/8SM -SN BR FEW003 M03/M04 A2989 RMK AO2
                 SLP130 =
2019-02-18 02:56 METAR KCEF 180756Z AUTO 00000KT 1 5/8SM -SN BR FEW003 M03/M04 A2989 RMK AO2
                 PRESFR SLP130 P0004 T10281039 =
2019-02-18 02:40 METAR KCEF 180740Z AUTO 09003KT 1 5/8SM -SN BR FEW003 OVC019 M03/M04 A2991 RMK
                 AO2 CIG 018 RWY05 PRESFR SLP137 =
2019-02-18 02:25 METAR KCEF 180725Z AUTO 00000KT 1 1/2SM -SN BR SCT003 M03/M04 A2993 RMK AO2 VIS
                 1 1/2V2 3/4 SLP144 =
2019-02-18 02:10 METAR KCEF 180710Z AUTO 00000KT 3SM -SN BR FEW005 M03/M04 A2994 RMK AO2 SLP147 =
2019-02-18 01:56 METAR KCEF 180656Z AUTO 00000KT 6SM -SN OVC029 M03/M04 A2994 RMK AO2 CIG 024V029
                 SLP147 P0002 T10281041 =
2019-02-18 01:26 METAR KCEF 180626Z AUTO 14003KT 3SM -SN BR OVC020 M03/M04 A2995 RMK AO2 VIS 1
                 5/8 RWY05 VIS 1 3/4 RWY33 CIG 017 RWY05 SLP151 =
2019-02-18 01:11 METAR KCEF 180611Z AUTO 15004KT 2 1/2SM -SN BR OVC018 M03/M04 A2995 RMK AO2 VIS
                 1 3/4 RWY05 CIG 017 RWY05 SLP151 =
2019-02-18 00:56 METAR KCEF 180556Z AUTO 13004KT 2SM -SN BR OVC018 M03/M04 A2995 RMK AO2 VIS 1V2
                 CIG 012 RWY05 SLP151 P0008 60014 T10281039 11001 21028 58013 =
2019-02-18 00:47 METAR KCEF 180547Z AUTO 12004KT 1 1/8SM -SN BR VV015 M03/M04 A2996 RMK AO2 CIG
                 010V016 CIG 012 RWY05 SLP154 =
2019-02-18 00:37 METAR KCEF 180537Z AUTO 00000KT 1SM R23/5500VP6000FT -SN BR OVC010 M03/M04 A2997
                 RMK AO2 CIG 010V012 CIG 009 RWY05 SLP158 =
2019-02-18 00:27 METAR KCEF 180527Z AUTO 00000KT 1 1/8SM -SN BR FEW003 OVC012 M03/M04 A2998 RMK
                 AO2 CIG 010 RWY05 SLP161 =
2019-02-18 00:12 METAR KCEF 180512Z AUTO 00000KT 1SM R23/4500VP6000FT -SN BR FEW003 OVC011
                 M03/M04 A2999 RMK AO2 VIS 1V1 1/2 SLP165 =
2019-02-18 00:02 METAR KCEF 180502Z AUTO 15003KT 1 3/8SM -SN BR FEW003 OVC011 M03/M04 A2998 RMK
                 AO2 CIG 010 RWY05 SLP161 =
2019-02-17 23:57 METAR KCEF 180457Z AUTO 00000KT 1 1/8SM -SN BR OVC011 M03/M04 A2999 RMK AO2 CIG
                 010V014 CIG 010 RWY05 SLP165 =
2019-02-17 23:56 METAR KCEF 180456Z AUTO 18003KT 1SM R23/6000VP6000FT -SN BR VV010 M03/M04 A2999
                 RMK AO2 SNE0356UPB0356E0358SNB0358 CIG 010V014 SLP165 P0006 T10271038 400351105
                 =
2019-02-17 23:55 METAR KCEF 180455Z AUTO 18003KT 1SM R23/6000VP6000FT -SN BR VV010 M03/M04 A2999
                 RMK AO2 SNE0356UPB0356E0358SNB0358 CIG 010V014 SLP165 =
2019-02-17 23:53 METAR KCEF 180453Z AUTO 00000KT 1 1/8SM -SN BR FEW003 OVC010 M03/M04 A2999 RMK
                 AO2 SNE0356UPB0356E0358SNB0358 CIG 010V014 CIG 009 RWY05 SLP165 =
2019-02-17 23:52 METAR KCEF 180452Z AUTO 00000KT 1SM R23/5500VP6000FT -SN BR FEW003 OVC012
                 M03/M04 A2999 RMK AO2 SNE0356UPB0356E0358SNB0358 CIG 009 RWY05 SLP165 =
2019-02-17 23:37 METAR KCEF 180437Z AUTO 00000KT 7/8SM R23/5000V6000FT -SN BR FEW003 OVC016
                 M03/M04 A2999 RMK AO2 VIS 7/8V1 7/8 SNE0356UPB0356E0358SNB0358 CIG 016V020 CIG
                 011 RWY05 SLP165 =
2019-02-17 23:36 METAR KCEF 180436Z AUTO 00000KT 1SM R23/5500VP6000FT -SN BR FEW003 OVC016
                 M03/M04 A2999 RMK AO2 VIS 1V2 SNE0356UPB0356E0358SNB0358 CIG 016V020 CIG 011
                 RWY05 SLP165 =
2019-02-17 23:28 METAR KCEF 180428Z AUTO 00000KT 1 7/8SM -SN BR FEW004 OVC020 M03/M04 A2998 RMK
                 AO2 VIS 1 1/8 RWY05 SNE0356UPB0356E0358SNB0358 CIG 016 RWY05 SLP161 =
2019-02-17 23:13 METAR KCEF 180413Z AUTO 19006KT 2 1/4SM -SN FEW006 OVC021 M02/M05 A2999 RMK AO2
                 VIS 2 1/4V3 SNE0356UPB0356E0358SNB0358 CIG 021V028 SLP165 =
2019-02-17 22:58 METAR KCEF 180358Z AUTO 18004KT 3SM -UP FEW006 M02/M06 A2999 RMK AO2 SNE56UPB56
                 SLP165 =
2019-02-17 22:56 METAR KCEF 180356Z 19004KT 3SM -SN FEW006 BKN025 OVC050 M02/M06 A2999 RMK AO2A
                 SLP165 P0000 T10161056 =
2019-02-17 22:16 METAR KCEF 180316Z 19006KT 10SM -SN FEW029 BKN042 OVC055 00/M09 A3000 RMK AO2A
                 SLP168 =
2019-02-17 21:56 METAR KCEF 180256Z 17004KT 10SM SCT030 OVC055 00/M09 A2999 RMK AO2A SLP165
                 T10041088 57010 =
2019-02-17 20:56 METAR KCEF 180156Z 19006KT 10SM SCT030 BKN050 OVC070 00/M09 A3000 RMK AO2A
                 SLP168 T10011090 =
2019-02-17 19:56 METAR KCEF 180056Z 16005KT 10SM FEW030 BKN075 OVC090 M02/M08 A3001 RMK AO2A
                 SLP172 T10161084 =
2019-02-17 18:56 METAR KCEF 172356Z 00000KT 10SM FEW030 BKN095 OVC120 M02/M08 A3002 RMK AO2A
                 SLP176 4/002 T10201085 10035 21020 53002 =
2019-02-17 17:56 METAR KCEF 172256Z 19003KT 10SM SCT130 BKN180 M02/M11 A3002 RMK AO2A SLP176
                 T10161107 =
2019-02-17 16:56 METAR KCEF 172156Z 21004KT 10SM SCT150 SCT200 02/M12 A3001 RMK AO2A SLP172
                 T00161122 =
2019-02-17 15:56 METAR KCEF 172056Z 16005KT 10SM SCT140 BKN170 03/M14 A3001 RMK AO2A SLP171
                 T00281139 58016 =
2019-02-17 14:56 METAR KCEF 171956Z 00000KT 10SM FEW150 FEW250 03/M13 A3004 RMK AO2A PRESFR
                 SLP182 T00251129 =
2019-02-17 13:56 METAR KCEF 171856Z 21004KT 10SM FEW150 FEW250 02/M12 A3011 RMK AO2A SLP205
                 T00161122 =
2019-02-17 12:56 METAR KCEF 171756Z 27003KT 10SM FEW150 FEW250 00/M15 A3006 RMK AO2A SLP189 4/002
                 T10021149 11002 21102 57029 =
2019-02-17 11:56 METAR KCEF 171656Z 04005KT 10SM FEW250 M02/M13 A3008 RMK AO2A SLP195 T10171135 =
2019-02-17 10:56 METAR KCEF 171556Z 32005KT 10SM FEW250 M03/M13 A3012 RMK AO2A SLP209 T10321129 =
2019-02-17 09:56 METAR KCEF 171456Z 01006KT 10SM FEW250 M05/M12 A3014 RMK AO2A SLP216 T10461123 =
2019-02-17 08:56 METAR KCEF 171356Z 01006KT 10SM FEW250 M06/M12 A3014 RMK AO2A SLP216 T10581121 =
2019-02-17 07:56 METAR KCEF 171256Z 02003KT 10SM FEW250 M09/M12 A3011 RMK AO2A SLP206 T10921117 =
2019-02-17 06:56 METAR KCEF 171156Z 00000KT 10SM CLR M10/M12 A3009 RMK AO2A SLP200 4/002
                 T11021124 11047 21105 51020 =
2019-02-17 05:56 METAR KCEF 171056Z AUTO 00000KT 10SM CLR M09/M12 A3008 RMK AO2 SLP196 T10881118
                 =

Support USWX by starting your Amazon purchase here.